Time;durP1;ratioP1;P1;durP2;ratioP2;P2;SDS_P1;SDS_P2;PMS_P1;PMS_P2;Temp;Humidity;BMP_temperature;BMP_pressure;BME280_temperature;BME280_humidity;BME280_pressure;Samples;Min_cycle;Max_cycle;Signal;HPM_P1;HPM_P2
2022/05/25 00:00:19;;;;;;;36.77;24.97;;;14.10;99.90;;;;;;4376354;28;661066;-68
2022/05/25 00:03:06;;;;;;;34.90;23.60;;;14.10;99.90;;;;;;4387757;28;660652;-67
2022/05/25 00:05:53;;;;;;;23.70;17.00;;;14.10;99.90;;;;;;4414480;28;660771;-67
2022/05/25 00:08:41;;;;;;;33.87;19.03;;;14.10;99.90;;;;;;4394807;28;661327;-67
2022/05/25 00:11:29;;;;;;;27.23;18.73;;;14.00;99.90;;;;;;4413962;28;661132;-68
2022/05/25 00:14:17;;;;;;;30.13;19.20;;;14.00;99.90;;;;;;4397701;28;661903;-67
2022/05/25 00:17:05;;;;;;;28.90;18.93;;;14.00;99.90;;;;;;4416773;28;661324;-67
2022/05/25 00:20:01;;;;;;;28.50;17.40;;;14.00;99.90;;;;;;4395561;28;661669;-68
2022/05/25 00:22:49;;;;;;;28.80;16.40;;;13.90;99.90;;;;;;4393886;28;661169;-67
2022/05/25 00:25:39;;;;;;;26.03;18.10;;;14.00;99.90;;;;;;4396730;28;660752;-66
2022/05/25 00:28:28;;;;;;;29.43;18.27;;;14.00;99.90;;;;;;4391227;28;660725;-67
2022/05/25 00:31:15;;;;;;;26.30;19.25;;;13.90;99.90;;;;;;4390458;28;661033;-68
2022/05/25 00:34:02;;;;;;;32.67;20.10;;;13.90;99.90;;;;;;4411889;28;662374;-67
2022/05/25 00:36:49;;;;;;;28.87;19.93;;;13.90;99.90;;;;;;4411764;28;660522;-68
2022/05/25 00:39:39;;;;;;;28.30;20.27;;;13.90;99.90;;;;;;4398378;28;660640;-68
2022/05/25 00:42:26;;;;;;;34.83;21.67;;;13.90;99.90;;;;;;4394200;28;661480;-67
2022/05/25 00:45:15;;;;;;;29.67;20.93;;;14.00;99.90;;;;;;4417125;28;661059;-68
2022/05/25 00:48:02;;;;;;;28.00;19.13;;;13.90;99.90;;;;;;4395183;28;661536;-67
2022/05/25 00:53:56;;;;;;;38.80;21.73;;;13.90;99.90;;;;;;4389417;28;661133;-67
2022/05/25 00:56:45;;;;;;;33.87;20.77;;;13.90;99.90;;;;;;4390671;28;661400;-67
2022/05/25 00:59:33;;;;;;;24.10;18.00;;;13.80;99.90;;;;;;4389467;28;661814;-67
2022/05/25 01:02:22;;;;;;;30.30;17.93;;;13.80;99.90;;;;;;4385029;28;661031;-67
2022/05/25 01:05:09;;;;;;;26.90;17.90;;;13.80;99.90;;;;;;4410563;28;661603;-68
2022/05/25 01:08:02;;;;;;;28.33;19.63;;;13.70;99.90;;;;;;4390678;28;661057;-67
2022/05/25 01:10:58;;;;;;;31.47;19.77;;;13.80;99.90;;;;;;4385244;28;660730;-67
2022/05/25 01:13:59;;;;;;;26.37;17.90;;;13.90;99.90;;;;;;4371762;28;660893;-68
2022/05/25 01:16:49;;;;;;;27.67;17.53;;;13.90;99.90;;;;;;4393798;28;660267;-67
2022/05/25 01:20:11;;;;;;;22.03;16.17;;;13.80;99.90;;;;;;4392106;28;661055;-67
2022/05/25 01:23:28;;;;;;;23.70;16.30;;;13.80;99.90;;;;;;4353961;28;661447;-67
2022/05/25 01:26:36;;;;;;;25.13;15.87;;;13.80;99.90;;;;;;4367507;28;661705;-68
2022/05/25 01:29:55;;;;;;;25.83;17.00;;;13.80;99.90;;;;;;4394197;28;660769;-67
2022/05/25 01:33:02;;;;;;;29.40;18.67;;;13.80;99.90;;;;;;4373240;28;661251;-67
2022/05/25 01:35:55;;;;;;;26.47;17.93;;;13.90;99.90;;;;;;4387077;28;660767;-68
2022/05/25 01:38:51;;;;;;;26.47;18.20;;;13.80;99.90;;;;;;4366020;28;660930;-68
2022/05/25 01:41:40;;;;;;;30.43;21.00;;;13.70;99.90;;;;;;4394004;28;660630;-67
2022/05/25 01:44:28;;;;;;;29.38;20.90;;;13.80;99.90;;;;;;4392663;28;661325;-68
2022/05/25 01:47:17;;;;;;;34.23;22.50;;;13.80;99.90;;;;;;4391586;28;661079;-68
2022/05/25 01:50:06;;;;;;;26.17;18.17;;;13.80;99.90;;;;;;4417722;28;661082;-68
2022/05/25 01:52:56;;;;;;;26.23;17.70;;;13.80;99.90;;;;;;4392556;28;660968;-67
2022/05/25 01:55:47;;;;;;;24.83;17.00;;;13.70;99.90;;;;;;4386377;28;662205;-67
2022/05/25 01:58:36;;;;;;;23.47;16.67;;;13.70;99.90;;;;;;4385839;28;661479;-67
2022/05/25 02:01:23;;;;;;;33.20;22.47;;;13.70;99.90;;;;;;4381239;28;662312;-68
2022/05/25 02:04:20;;;;;;;39.40;24.93;;;13.70;99.90;;;;;;4387324;28;660742;-68
2022/05/25 02:07:20;;;;;;;48.03;28.13;;;13.70;99.90;;;;;;4359832;28;662644;-67
2022/05/25 02:10:23;;;;;;;28.23;18.50;;;13.70;99.90;;;;;;4357206;28;661190;-67
2022/05/25 02:13:33;;;;;;;24.30;17.30;;;13.60;99.90;;;;;;4390230;28;660635;-68
2022/05/25 02:16:26;;;;;;;27.63;17.63;;;13.60;99.90;;;;;;4374448;28;661388;-68
2022/05/25 02:19:18;;;;;;;28.83;17.13;;;13.60;99.90;;;;;;4383456;28;661415;-68
2022/05/25 02:22:09;;;;;;;34.37;23.20;;;13.50;99.90;;;;;;4359989;28;661654;-68
2022/05/25 02:25:00;;;;;;;35.80;21.17;;;13.60;99.90;;;;;;4390035;28;661437;-68
2022/05/25 02:27:48;;;;;;;31.30;18.90;;;13.60;99.90;;;;;;4388698;28;662709;-66
2022/05/25 02:30:36;;;;;;;27.37;18.97;;;13.60;99.90;;;;;;4388333;28;661983;-69
2022/05/25 02:33:25;;;;;;;28.70;19.80;;;13.50;99.90;;;;;;4394260;28;661823;-66
2022/05/25 02:36:13;;;;;;;35.57;21.33;;;13.50;99.90;;;;;;4365941;28;661858;-67
2022/05/25 02:39:02;;;;;;;34.03;22.07;;;13.60;99.90;;;;;;4371023;28;661240;-66
2022/05/25 02:41:50;;;;;;;31.90;22.57;;;13.60;99.90;;;;;;4392646;28;660461;-67
2022/05/25 02:44:38;;;;;;;38.60;24.47;;;13.50;99.90;;;;;;4373393;28;660730;-66
2022/05/25 02:47:25;;;;;;;38.63;23.97;;;13.50;99.90;;;;;;4374622;28;661281;-67
2022/05/25 02:50:12;;;;;;;30.93;22.23;;;13.50;99.90;;;;;;4399885;28;661619;-67
2022/05/25 02:53:01;;;;;;;36.53;23.30;;;13.40;99.90;;;;;;4394478;28;661396;-66
2022/05/25 02:55:48;;;;;;;38.27;25.53;;;13.30;99.90;;;;;;4370865;28;662291;-66
2022/05/25 02:58:35;;;;;;;38.67;26.37;;;13.30;99.90;;;;;;4372314;28;661186;-67
2022/05/25 03:01:23;;;;;;;38.23;24.10;;;13.30;99.90;;;;;;4391627;28;661462;-66
2022/05/25 03:04:10;;;;;;;39.57;25.67;;;13.30;99.90;;;;;;4384663;28;660566;-67
2022/05/25 03:06:57;;;;;;;44.37;26.80;;;13.20;99.90;;;;;;4396524;28;661620;-67
2022/05/25 03:09:46;;;;;;;33.20;22.43;;;13.20;99.90;;;;;;4394461;28;660939;-66
2022/05/25 03:12:33;;;;;;;33.47;21.77;;;13.20;99.90;;;;;;4374439;28;660952;-67
2022/05/25 03:15:21;;;;;;;29.83;20.43;;;13.30;99.90;;;;;;4374385;28;660830;-67
2022/05/25 03:18:09;;;;;;;28.30;20.20;;;13.20;99.90;;;;;;4400825;28;660508;-67
2022/05/25 03:20:56;;;;;;;34.63;22.47;;;13.20;99.90;;;;;;4378307;28;660562;-67
2022/05/25 03:23:43;;;;;;;34.60;24.03;;;13.30;99.90;;;;;;4399744;28;661419;-67
2022/05/25 03:26:32;;;;;;;37.70;24.03;;;13.30;99.90;;;;;;4376834;28;660438;-68
2022/05/25 03:29:20;;;;;;;52.10;29.63;;;13.40;99.90;;;;;;4393905;28;662446;-66
2022/05/25 03:32:08;;;;;;;48.87;29.60;;;13.60;99.90;;;;;;4373389;28;661460;-67
2022/05/25 03:34:57;;;;;;;47.13;27.23;;;13.70;99.90;;;;;;4376584;28;660856;-67
2022/05/25 03:37:44;;;;;;;34.30;21.67;;;13.60;99.90;;;;;;4396411;28;661407;-67
2022/05/25 03:40:31;;;;;;;43.90;26.13;;;13.60;99.90;;;;;;4376961;28;661149;-67
2022/05/25 03:43:20;;;;;;;39.58;26.10;;;13.70;99.90;;;;;;4399624;28;662167;-67
2022/05/25 03:46:07;;;;;;;52.03;28.20;;;13.80;99.90;;;;;;4370971;28;661655;-66
2022/05/25 03:48:54;;;;;;;46.17;30.03;;;13.80;99.90;;;;;;4394882;28;661696;-66
2022/05/25 03:51:41;;;;;;;32.83;21.43;;;13.80;99.90;;;;;;4377416;28;661335;-67
2022/05/25 03:54:30;;;;;;;32.03;21.03;;;13.80;99.90;;;;;;4381287;28;660826;-67
2022/05/25 03:57:17;;;;;;;44.00;25.63;;;13.80;99.90;;;;;;4376157;28;661419;-66
2022/05/25 04:00:07;;;;;;;37.53;23.80;;;13.90;99.90;;;;;;4389201;28;660810;-66
2022/05/25 04:02:56;;;;;;;43.03;25.80;;;13.90;99.90;;;;;;4368456;28;661464;-67
2022/05/25 04:05:43;;;;;;;41.70;25.57;;;13.90;99.90;;;;;;4364047;28;661361;-67
2022/05/25 04:08:30;;;;;;;46.03;28.30;;;14.00;99.90;;;;;;4372108;28;660802;-67
2022/05/25 04:11:18;;;;;;;41.35;26.00;;;14.10;99.90;;;;;;4400487;28;660467;-68
2022/05/25 04:14:05;;;;;;;33.27;21.47;;;14.10;99.90;;;;;;4370472;28;661021;-67
2022/05/25 04:16:54;;;;;;;38.97;24.47;;;14.10;99.90;;;;;;4394291;28;660965;-66
2022/05/25 04:19:41;;;;;;;40.13;25.17;;;14.20;99.90;;;;;;4373822;28;660805;-67
2022/05/25 04:22:29;;;;;;;34.30;23.00;;;14.20;99.90;;;;;;4393472;28;661424;-67
2022/05/25 04:25:19;;;;;;;40.47;23.53;;;14.10;99.90;;;;;;4376781;28;662201;-68
2022/05/25 04:28:06;;;;;;;39.50;25.33;;;14.20;99.90;;;;;;4361884;28;660804;-67
2022/05/25 04:30:53;;;;;;;47.50;29.27;;;14.30;99.90;;;;;;4386739;28;660939;-67
2022/05/25 04:33:42;;;;;;;46.00;28.73;;;14.40;99.90;;;;;;4377834;28;660836;-68
2022/05/25 04:36:29;;;;;;;51.53;28.90;;;14.50;99.90;;;;;;4391357;28;661858;-66
2022/05/25 04:39:16;;;;;;;43.20;25.67;;;14.60;99.90;;;;;;4365000;28;661256;-66
2022/05/25 04:42:04;;;;;;;41.07;26.20;;;14.60;99.90;;;;;;4394287;28;660891;-67
2022/05/25 04:44:51;;;;;;;30.50;22.27;;;14.60;99.90;;;;;;4373636;28;661228;-67
2022/05/25 04:47:40;;;;;;;34.37;22.40;;;14.60;99.90;;;;;;4387253;28;662154;-67
2022/05/25 04:50:30;;;;;;;37.33;23.57;;;14.60;99.90;;;;;;4350273;28;662380;-66
2022/05/25 04:53:18;;;;;;;35.50;24.80;;;14.70;99.90;;;;;;4343415;28;661270;-67
2022/05/25 04:59:10;;;;;;;42.43;27.53;;;15.00;99.90;;;;;;4322515;28;662033;-68
2022/05/25 05:01:59;;;;;;;46.93;31.30;;;15.00;99.90;;;;;;4365050;28;660410;-67
2022/05/25 05:04:46;;;;;;;44.77;31.60;;;15.10;99.90;;;;;;4354857;28;660478;-68
2022/05/25 05:07:35;;;;;;;44.63;30.27;;;15.10;99.90;;;;;;4374468;28;660918;-67
2022/05/25 05:10:22;;;;;;;36.57;24.80;;;15.10;99.90;;;;;;4340258;28;661960;-67
2022/05/25 05:13:09;;;;;;;38.30;25.73;;;15.10;99.90;;;;;;4375748;28;661214;-67
2022/05/25 05:15:57;;;;;;;39.40;26.23;;;15.10;99.90;;;;;;4351778;28;661558;-67
2022/05/25 05:18:44;;;;;;;34.50;24.83;;;15.10;99.90;;;;;;4375610;28;661441;-67
2022/05/25 05:21:32;;;;;;;39.73;25.90;;;15.00;99.90;;;;;;4339885;28;660844;-66
2022/05/25 05:24:20;;;;;;;47.17;29.63;;;15.20;99.90;;;;;;4381871;28;661001;-67
2022/05/25 05:27:08;;;;;;;41.00;27.77;;;15.30;99.90;;;;;;4351046;28;661730;-67
2022/05/25 05:29:57;;;;;;;42.85;31.83;;;15.30;99.90;;;;;;4347613;28;660830;-68
2022/05/25 05:32:44;;;;;;;58.07;38.23;;;15.50;99.90;;;;;;4374443;28;661367;-66
2022/05/25 05:35:31;;;;;;;59.80;37.70;;;15.50;99.90;;;;;;4356077;28;660780;-67
2022/05/25 05:38:18;;;;;;;52.80;35.30;;;15.60;99.90;;;;;;4373932;28;661999;-68
2022/05/25 05:41:07;;;;;;;42.90;30.80;;;15.80;99.90;;;;;;4348993;28;660722;-67
2022/05/25 05:43:54;;;;;;;52.23;32.93;;;15.90;99.90;;;;;;4367158;28;661397;-67
2022/05/25 05:46:42;;;;;;;47.87;30.97;;;15.90;99.90;;;;;;4356296;28;661081;-67
2022/05/25 05:49:29;;;;;;;47.77;30.53;;;16.10;99.90;;;;;;4371790;28;662347;-67
2022/05/25 05:52:17;;;;;;;45.47;31.27;;;16.00;99.90;;;;;;4360419;28;662044;-69
2022/05/25 05:55:04;;;;;;;48.80;29.57;;;16.00;99.90;;;;;;4375364;28;660212;-67
2022/05/25 05:57:53;;;;;;;46.03;31.10;;;16.10;99.90;;;;;;4355087;28;661035;-66
2022/05/25 06:00:40;;;;;;;45.97;32.23;;;16.00;99.90;;;;;;4364233;28;660617;-68
2022/05/25 06:03:28;;;;;;;45.50;30.83;;;16.00;99.90;;;;;;4373798;28;661748;-67
2022/05/25 06:06:15;;;;;;;51.37;31.90;;;16.00;99.90;;;;;;4387410;28;660939;-67
2022/05/25 06:09:02;;;;;;;46.37;32.13;;;15.80;99.90;;;;;;4392673;28;661234;-67
2022/05/25 06:11:50;;;;;;;45.50;31.33;;;15.90;99.90;;;;;;4389661;28;661399;-68
2022/05/25 06:14:39;;;;;;;45.00;29.73;;;15.90;99.90;;;;;;4394136;28;660539;-67
2022/05/25 06:20:30;;;;;;;45.23;30.37;;;15.90;99.90;;;;;;4353836;28;660785;-67
2022/05/25 06:23:18;;;;;;;47.23;29.70;;;16.00;99.90;;;;;;4402088;28;661661;-67
2022/05/25 06:26:05;;;;;;;44.70;30.20;;;15.90;99.90;;;;;;4383880;28;661052;-68
2022/05/25 06:28:52;;;;;;;51.30;31.03;;;15.90;99.90;;;;;;4395727;28;660533;-67
2022/05/25 06:31:41;;;;;;;43.00;29.93;;;15.90;99.90;;;;;;4402760;28;661772;-67
2022/05/25 06:34:28;;;;;;;47.50;30.57;;;16.10;99.90;;;;;;4372733;28;661584;-67
2022/05/25 06:37:16;;;;;;;38.17;27.60;;;16.10;99.90;;;;;;4366937;28;660558;-69
2022/05/25 06:40:03;;;;;;;42.67;26.20;;;16.30;99.90;;;;;;4400884;28;661301;-67
2022/05/25 06:42:51;;;;;;;35.87;23.90;;;16.60;99.90;;;;;;4373074;28;661833;-68
2022/05/25 06:45:39;;;;;;;35.70;23.87;;;16.60;99.90;;;;;;4394832;28;661376;-67
2022/05/25 06:48:27;;;;;;;33.07;23.80;;;16.70;99.90;;;;;;4379838;28;660674;-67
2022/05/25 06:51:16;;;;;;;34.60;23.53;;;16.60;99.90;;;;;;4396868;28;661328;-68
2022/05/25 06:54:05;;;;;;;34.63;24.27;;;16.60;99.90;;;;;;4393810;28;661853;-67
2022/05/25 06:56:52;;;;;;;35.17;25.63;;;16.50;99.90;;;;;;4380827;28;661650;-67
2022/05/25 06:59:39;;;;;;;34.57;24.83;;;16.60;99.90;;;;;;4394345;28;660588;-67
2022/05/25 07:02:28;;;;;;;40.93;26.17;;;16.70;99.90;;;;;;4376728;28;661817;-67
2022/05/25 07:05:17;;;;;;;35.57;24.97;;;16.90;99.90;;;;;;4375227;28;661006;-68
2022/05/25 07:08:04;;;;;;;40.97;25.87;;;17.10;99.90;;;;;;4390652;28;661369;-67
2022/05/25 07:10:52;;;;;;;41.37;27.87;;;17.00;99.90;;;;;;4380025;28;660769;-67
2022/05/25 07:13:39;;;;;;;50.30;26.90;;;17.10;99.90;;;;;;4398527;28;660394;-67
2022/05/25 07:16:26;;;;;;;38.88;26.90;;;17.30;99.90;;;;;;4364461;28;660617;-67
2022/05/25 07:19:13;;;;;;;43.33;27.17;;;17.00;99.90;;;;;;4395523;28;661237;-68
2022/05/25 07:22:02;;;;;;;33.97;25.83;;;17.30;99.90;;;;;;4376015;28;660814;-67
2022/05/25 07:24:49;;;;;;;42.55;26.73;;;17.30;99.90;;;;;;4402630;28;661572;-68
2022/05/25 07:27:37;;;;;;;40.97;26.20;;;17.30;99.90;;;;;;4376424;28;661863;-67
2022/05/25 07:30:24;;;;;;;38.07;27.17;;;17.40;99.90;;;;;;4388981;28;660465;-67
2022/05/25 07:33:11;;;;;;;39.20;25.60;;;17.50;99.90;;;;;;4370835;28;660746;-67
2022/05/25 07:35:59;;;;;;;35.60;24.63;;;17.60;99.90;;;;;;4397676;28;661542;-67
2022/05/25 07:38:50;;;;;;;39.27;27.50;;;17.30;99.90;;;;;;4371885;28;660844;-68
2022/05/25 07:41:39;;;;;;;40.60;27.30;;;16.90;99.90;;;;;;4376366;28;661520;-66
2022/05/25 07:44:29;;;;;;;38.37;26.27;;;16.90;99.90;;;;;;4375857;28;660722;-67
2022/05/25 07:47:16;;;;;;;40.23;27.53;;;16.70;99.90;;;;;;4380317;28;661133;-68
2022/05/25 07:50:04;;;;;;;33.77;22.00;;;16.80;99.90;;;;;;4399489;28;661412;-67
2022/05/25 07:52:52;;;;;;;29.97;19.97;;;16.60;99.90;;;;;;4379881;28;660581;-68
2022/05/25 07:55:42;;;;;;;32.63;21.17;;;16.30;99.90;;;;;;4402885;28;661213;-66
2022/05/25 07:58:29;;;;;;;36.03;23.80;;;16.20;99.90;;;;;;4369506;28;660527;-66
2022/05/25 08:01:17;;;;;;;42.53;25.30;;;16.20;99.90;;;;;;4376196;28;660459;-66
2022/05/25 08:07:10;;;;;;;49.93;33.67;;;16.10;99.90;;;;;;4370206;28;660909;-67
2022/05/25 08:10:01;;;;;;;59.87;36.23;;;16.00;99.90;;;;;;4379168;28;661187;-67
2022/05/25 08:12:49;;;;;;;51.70;33.20;;;15.90;99.90;;;;;;4375145;28;661888;-67
2022/05/25 08:15:42;;;;;;;56.80;35.67;;;15.90;99.90;;;;;;4379275;28;660875;-66
2022/05/25 08:18:29;;;;;;;56.53;35.97;;;15.80;99.90;;;;;;4374930;28;660636;-67
2022/05/25 08:21:17;;;;;;;60.43;38.30;;;15.70;99.90;;;;;;4376034;28;660851;-67
2022/05/25 08:24:05;;;;;;;64.20;39.23;;;15.60;99.90;;;;;;4403919;28;661188;-67
2022/05/25 08:26:52;;;;;;;63.30;40.20;;;15.60;99.90;;;;;;4374689;28;661420;-67
2022/05/25 08:29:41;;;;;;;57.53;35.73;;;15.60;99.90;;;;;;4396531;28;660650;-67
2022/05/25 08:32:28;;;;;;;51.37;35.37;;;15.50;99.90;;;;;;4373921;28;660961;-67
2022/05/25 08:35:15;;;;;;;58.80;37.77;;;15.60;99.90;;;;;;4385385;28;660516;-67
2022/05/25 08:38:03;;;;;;;59.97;38.07;;;15.60;99.90;;;;;;4400720;28;661218;-67
2022/05/25 08:40:51;;;;;;;56.30;37.90;;;15.60;99.90;;;;;;4378789;28;660828;-68
2022/05/25 08:43:41;;;;;;;53.33;35.53;;;15.70;99.90;;;;;;4404437;28;660872;-66
2022/05/25 08:46:30;;;;;;;50.43;33.37;;;15.80;99.90;;;;;;4382450;28;661255;-67
2022/05/25 08:49:18;;;;;;;45.83;31.60;;;15.80;99.90;;;;;;4380725;28;660647;-67
2022/05/25 08:52:07;;;;;;;45.53;29.80;;;15.80;99.90;;;;;;4388009;28;660604;-67
2022/05/25 08:54:54;;;;;;;41.17;28.07;;;15.80;99.90;;;;;;4394441;28;660356;-67
2022/05/25 08:57:43;;;;;;;35.50;26.03;;;15.70;99.90;;;;;;4351751;28;661239;-67
2022/05/25 09:00:30;;;;;;;35.10;26.17;;;15.70;99.90;;;;;;4366662;28;660775;-68
2022/05/25 09:03:23;;;;;;;34.23;25.60;;;15.70;99.90;;;;;;4383982;28;661515;-67
2022/05/25 09:06:14;;;;;;;31.43;22.53;;;15.70;99.90;;;;;;4339540;28;660930;-68
2022/05/25 09:09:04;;;;;;;30.00;22.43;;;15.70;99.90;;;;;;4361337;28;660923;-68
2022/05/25 09:11:53;;;;;;;30.00;21.73;;;15.70;99.90;;;;;;4370976;28;660882;-67
2022/05/25 09:14:43;;;;;;;27.27;19.77;;;15.70;99.90;;;;;;4374499;28;661154;-67
2022/05/25 09:17:32;;;;;;;28.00;20.17;;;15.70;99.90;;;;;;4377254;28;660641;-68
2022/05/25 09:20:23;;;;;;;32.73;20.87;;;15.70;99.90;;;;;;4392565;28;661560;-67
2022/05/25 09:23:10;;;;;;;32.53;21.93;;;15.60;99.90;;;;;;4359521;28;660795;-67
2022/05/25 09:25:57;;;;;;;30.60;22.30;;;15.60;99.90;;;;;;4385133;28;660992;-68
2022/05/25 09:28:47;;;;;;;28.87;20.07;;;15.70;99.90;;;;;;4394915;28;660521;-68
2022/05/25 09:31:36;;;;;;;28.00;20.23;;;15.70;99.90;;;;;;4390845;28;661434;-67
2022/05/25 09:34:29;;;;;;;27.80;20.47;;;15.60;99.90;;;;;;4365501;28;661639;-67
2022/05/25 09:37:25;;;;;;;28.53;20.43;;;15.60;99.90;;;;;;4378415;28;660491;-68
2022/05/25 09:40:16;;;;;;;28.63;22.07;;;15.60;99.90;;;;;;4337379;28;661243;-68
2022/05/25 09:43:04;;;;;;;28.63;20.67;;;15.60;99.90;;;;;;4351539;28;661634;-67
2022/05/25 09:45:53;;;;;;;27.63;19.37;;;15.60;99.90;;;;;;4369922;28;660699;-67
2022/05/25 09:48:47;;;;;;;18.27;13.00;;;15.60;99.90;;;;;;4377215;28;660649;-68
2022/05/25 09:51:35;;;;;;;16.13;11.10;;;15.10;99.90;;;;;;4380129;28;661044;-66
2022/05/25 09:54:27;;;;;;;13.43;8.60;;;15.00;99.90;;;;;;4370180;28;662716;-67
2022/05/25 09:57:18;;;;;;;16.40;8.77;;;14.50;99.90;;;;;;4367951;28;659625;-67
2022/05/25 10:00:08;;;;;;;12.67;8.33;;;14.20;99.90;;;;;;4348783;28;659882;-67
2022/05/25 10:03:00;;;;;;;14.10;8.63;;;14.00;99.90;;;;;;4373299;28;659884;-67
2022/05/25 10:05:53;;;;;;;15.40;8.60;;;14.00;99.90;;;;;;4361468;28;660567;-67
2022/05/25 10:08:41;;;;;;;11.07;7.73;;;13.80;99.90;;;;;;4355062;28;659552;-68
2022/05/25 10:11:32;;;;;;;12.20;7.10;;;13.70;99.90;;;;;;4397350;28;661288;-67
2022/05/25 10:14:25;;;;;;;8.97;6.50;;;13.40;99.90;;;;;;4375761;28;659864;-68
2022/05/25 10:17:13;;;;;;;10.40;6.70;;;13.30;99.90;;;;;;4347076;28;659301;-67
2022/05/25 10:20:01;;;;;;;11.77;7.13;;;13.10;99.90;;;;;;4378617;28;659952;-67
2022/05/25 10:22:48;;;;;;;15.60;6.57;;;12.90;99.90;;;;;;4384818;28;661053;-67
2022/05/25 10:25:37;;;;;;;9.63;6.30;;;12.80;99.90;;;;;;4360636;28;659609;-68
2022/05/25 10:28:30;;;;;;;12.40;6.30;;;12.80;99.90;;;;;;4384517;28;659842;-67
2022/05/25 10:37:36;;;;;;;5.30;3.77;;;12.80;99.90;;;;;;4369840;28;660884;-67
2022/05/25 10:40:24;;;;;;;7.33;3.40;;;12.60;99.90;;;;;;4373162;28;659369;-67
2022/05/25 10:43:15;;;;;;;8.17;3.63;;;12.50;99.90;;;;;;4377674;28;658785;-68
2022/05/25 10:46:03;;;;;;;6.10;3.87;;;12.40;99.90;;;;;;4357887;28;660402;-67
2022/05/25 10:48:53;;;;;;;9.53;3.63;;;12.40;99.90;;;;;;4378892;28;658945;-67
2022/05/25 10:51:43;;;;;;;6.37;3.90;;;12.40;99.90;;;;;;4378945;28;659072;-68
2022/05/25 10:54:52;;;;;;;6.45;3.80;;;12.50;99.90;;;;;;4370721;28;658635;-67
2022/05/25 10:57:47;;;;;;;7.85;2.60;;;12.60;99.90;;;;;;4364931;28;658520;-67
2022/05/25 11:00:44;;;;;;;5.37;4.17;;;12.60;99.90;;;;;;4365747;28;658598;-67
2022/05/25 11:04:01;;;;;;;4.87;4.10;;;12.60;99.90;;;;;;4335181;28;659067;-67
2022/05/25 11:07:18;;;;;;;6.13;3.83;;;12.80;99.90;;;;;;4362759;28;659163;-67
2022/05/25 11:10:40;;;;;;;6.40;3.93;;;12.80;99.90;;;;;;4342003;28;659706;-67
2022/05/25 11:13:42;;;;;;;8.43;4.07;;;12.90;99.90;;;;;;4356639;28;659114;-67
2022/05/25 11:16:42;;;;;;;6.40;4.30;;;13.00;99.90;;;;;;4354371;28;658685;-68
2022/05/25 11:20:00;;;;;;;7.77;4.77;;;13.20;99.90;;;;;;4379560;28;659099;-68
2022/05/25 11:23:13;;;;;;;5.90;4.30;;;13.30;99.90;;;;;;4338685;28;659716;-68
2022/05/25 11:26:18;;;;;;;7.57;4.33;;;13.30;99.90;;;;;;4341208;28;658762;-68
2022/05/25 11:29:13;;;;;;;6.30;4.50;;;13.40;99.90;;;;;;4351994;28;660962;-68
2022/05/25 11:32:04;;;;;;;6.23;4.57;;;13.50;99.90;;;;;;4341324;28;659086;-67
2022/05/25 11:35:04;;;;;;;5.33;4.00;;;13.50;99.90;;;;;;4359753;28;658888;-67
2022/05/25 11:37:57;;;;;;;4.13;3.50;;;13.30;99.90;;;;;;4362518;28;658616;-67
2022/05/25 11:40:49;;;;;;;5.77;3.90;;;13.10;99.90;;;;;;4374920;28;658345;-68
2022/05/25 11:43:55;;;;;;;5.13;3.70;;;13.00;99.90;;;;;;4381679;28;659116;-66
2022/05/25 11:46:43;;;;;;;3.97;2.97;;;12.70;99.90;;;;;;4366886;28;659050;-67
2022/05/25 11:49:41;;;;;;;6.47;3.33;;;12.50;99.90;;;;;;4377973;28;659055;-67
2022/05/25 11:52:46;;;;;;;3.47;3.10;;;12.50;99.90;;;;;;4368664;28;658968;-66
2022/05/25 11:55:36;;;;;;;5.27;3.67;;;12.60;99.90;;;;;;4368563;28;659296;-67
2022/05/25 11:58:31;;;;;;;5.90;3.27;;;12.60;99.90;;;;;;4367442;28;658469;-66
2022/05/25 12:01:22;;;;;;;8.70;4.00;;;12.50;99.90;;;;;;4369277;28;658597;-67
2022/05/25 12:04:30;;;;;;;6.07;4.30;;;12.50;99.90;;;;;;4356126;28;659219;-67
2022/05/25 12:07:34;;;;;;;8.38;4.95;;;12.40;99.90;;;;;;4357267;28;658841;-68
2022/05/25 12:13:17;;;;;;;9.80;5.67;;;12.50;99.90;;;;;;4918637;27;131318;-68
2022/05/25 12:16:05;;;;;;;7.30;5.07;;;12.70;99.90;;;;;;4393938;28;651004;-68
2022/05/25 12:18:55;;;;;;;9.00;5.67;;;12.80;99.90;;;;;;4399317;28;651169;-69
2022/05/25 12:21:45;;;;;;;9.50;5.57;;;12.80;99.90;;;;;;4389920;28;650597;-68
2022/05/25 12:24:33;;;;;;;8.53;5.73;;;12.90;99.90;;;;;;4396617;28;651451;-68
2022/05/25 12:27:22;;;;;;;10.70;5.73;;;12.80;99.90;;;;;;4407338;28;651135;-68
2022/05/25 12:30:14;;;;;;;9.17;5.70;;;12.70;99.90;;;;;;4426122;28;651950;-69
2022/05/25 12:33:01;;;;;;;9.70;6.33;;;12.60;99.90;;;;;;4409636;28;651292;-69
2022/05/25 12:35:49;;;;;;;11.43;7.03;;;12.60;99.90;;;;;;4426781;28;652060;-69
2022/05/25 12:38:37;;;;;;;7.47;5.30;;;12.70;99.90;;;;;;4423522;28;652318;-68
2022/05/25 12:41:27;;;;;;;6.83;4.57;;;12.60;99.90;;;;;;4446806;28;652803;-68
2022/05/25 12:51:06;;;;;;;7.70;3.13;;;12.40;99.90;;;;;;4421136;28;652906;-68
2022/05/25 12:54:00;;;;;;;5.80;3.17;;;12.20;99.90;;;;;;4423932;28;653406;-68
2022/05/25 12:56:47;;;;;;;4.37;3.00;;;12.00;99.90;;;;;;4418313;28;652467;-68
2022/05/25 12:59:35;;;;;;;4.75;3.08;;;11.90;99.90;;;;;;4440510;28;653075;-68
2022/05/25 13:02:29;;;;;;;4.83;3.17;;;11.80;99.90;;;;;;4420573;28;653296;-69
2022/05/25 13:05:50;;;;;;;4.37;3.20;;;11.70;99.90;;;;;;4425344;28;652763;-68
2022/05/25 13:09:03;;;;;;;3.80;3.23;;;11.70;99.90;;;;;;4398767;28;652514;-68
2022/05/25 13:11:51;;;;;;;3.92;2.90;;;11.80;99.90;;;;;;4395613;28;652661;-68
2022/05/25 13:14:56;;;;;;;28.70;14.50;;;11.80;99.90;;;;;;4400631;28;653264;-69
2022/05/25 13:17:47;;;;;;;5.27;2.97;;;11.70;99.90;;;;;;4412100;28;654839;-68
2022/05/25 13:21:00;;;;;;;4.57;2.80;;;11.70;99.90;;;;;;4420384;28;652148;-68
2022/05/25 13:24:35;;;;;;;4.60;2.80;;;11.70;99.90;;;;;;4409460;28;653021;-69
2022/05/25 13:28:09;;;;;;;6.05;2.85;;;11.70;99.90;;;;;;4412979;28;652990;-69
2022/05/25 13:31:04;;;;;;;4.77;3.17;;;11.80;99.90;;;;;;4406603;28;653202;-68
2022/05/25 13:33:53;;;;;;;9.43;3.20;;;11.80;99.90;;;;;;4409527;28;652211;-69
2022/05/25 13:36:43;;;;;;;4.50;2.97;;;12.00;99.90;;;;;;4413372;28;652218;-69
2022/05/25 13:39:31;;;;;;;4.70;2.93;;;12.00;99.90;;;;;;4412002;28;652480;-70
2022/05/25 13:42:19;;;;;;;5.55;3.00;;;12.20;99.90;;;;;;4432003;28;653296;-68
2022/05/25 13:45:08;;;;;;;8.50;2.83;;;12.40;99.90;;;;;;4414227;28;652467;-68
2022/05/25 13:47:56;;;;;;;10.30;3.93;;;12.40;99.90;;;;;;4416488;28;652494;-69
2022/05/25 13:50:46;;;;;;;5.97;2.90;;;12.30;99.90;;;;;;4430723;28;653974;-68
2022/05/25 13:53:34;;;;;;;5.73;3.27;;;12.20;99.90;;;;;;4409214;28;652724;-68
2022/05/25 13:56:22;;;;;;;7.47;2.73;;;12.30;99.90;;;;;;4407080;28;652891;-69
2022/05/25 13:59:11;;;;;;;7.17;3.07;;;12.30;99.90;;;;;;4432803;28;652100;-68
2022/05/25 14:02:19;;;;;;;4.73;2.70;;;12.20;99.90;;;;;;4407932;28;653764;-69
2022/05/25 14:05:08;;;;;;;7.27;3.33;;;12.30;99.90;;;;;;4412620;28;652082;-68
2022/05/25 14:08:06;;;;;;;7.53;3.20;;;12.20;99.90;;;;;;4425038;28;652359;-69
2022/05/25 14:10:55;;;;;;;9.67;3.20;;;12.30;99.90;;;;;;4406955;28;652770;-68
2022/05/25 14:13:42;;;;;;;10.93;3.77;;;12.20;99.90;;;;;;4412642;28;652880;-68
2022/05/25 14:16:29;;;;;;;12.53;3.93;;;12.20;99.90;;;;;;4429260;28;653396;-69
2022/05/25 14:19:22;;;;;;;11.83;4.37;;;12.00;99.90;;;;;;4410284;28;653682;-68
2022/05/25 14:22:09;;;;;;;8.60;4.20;;;12.10;99.90;;;;;;4406677;28;653709;-69
2022/05/25 14:24:59;;;;;;;10.00;4.17;;;12.20;99.90;;;;;;4412564;28;652606;-68
2022/05/25 14:27:47;;;;;;;10.87;4.17;;;12.20;99.90;;;;;;4411106;28;653752;-68
2022/05/25 14:30:35;;;;;;;9.80;4.55;;;12.20;99.90;;;;;;4431122;28;653853;-68
2022/05/25 14:33:23;;;;;;;10.00;4.70;;;12.20;99.90;;;;;;4414244;28;652728;-68
2022/05/25 14:36:11;;;;;;;6.93;4.27;;;12.20;99.90;;;;;;4408327;28;653807;-68
2022/05/25 14:38:58;;;;;;;7.97;4.00;;;12.20;99.90;;;;;;4430624;28;653187;-68
2022/05/25 14:41:49;;;;;;;8.03;4.33;;;12.30;99.90;;;;;;4413019;28;652604;-69
2022/05/25 14:44:45;;;;;;;7.73;4.20;;;12.40;99.90;;;;;;4412306;28;652971;-68
2022/05/25 14:47:35;;;;;;;10.23;4.20;;;12.40;99.90;;;;;;4387049;28;653408;-69
2022/05/25 14:50:23;;;;;;;5.40;3.83;;;12.30;99.90;;;;;;4405449;28;654121;-68